createdAt,value
2023-10-03T00:01:17.252Z,99.90
2023-10-03T00:04:00.158Z,99.90
2023-10-03T00:06:47.166Z,99.90
2023-10-03T00:09:46.209Z,99.90
2023-10-03T00:13:15.862Z,99.90
2023-10-03T00:16:06.338Z,99.90
2023-10-03T00:18:46.097Z,99.90
2023-10-03T00:21:58.747Z,99.90
2023-10-03T00:24:36.567Z,99.90
2023-10-03T00:27:18.850Z,99.90
2023-10-03T00:30:27.639Z,99.90
2023-10-03T00:33:24.884Z,99.90
2023-10-03T00:36:33.118Z,99.90
2023-10-03T00:39:19.812Z,99.90
2023-10-03T00:42:17.332Z,99.90
2023-10-03T00:46:11.640Z,99.90
2023-10-03T00:48:58.492Z,99.90
2023-10-03T00:51:42.356Z,99.90
2023-10-03T00:54:23.577Z,99.90
2023-10-03T00:57:00.726Z,99.90
2023-10-03T00:59:41.952Z,99.90
2023-10-03T01:02:42.370Z,99.90
2023-10-03T01:05:24.006Z,99.90
2023-10-03T01:08:30.947Z,99.90
2023-10-03T01:11:27.124Z,99.90
2023-10-03T01:14:38.225Z,99.90
2023-10-03T01:17:22.264Z,99.90
2023-10-03T01:20:09.302Z,99.90
2023-10-03T01:22:58.359Z,99.90
2023-10-03T01:26:03.871Z,99.90
2023-10-03T01:28:41.674Z,99.90
2023-10-03T01:31:38.713Z,99.90
2023-10-03T01:34:24.587Z,99.90
2023-10-03T01:37:15.584Z,99.90
2023-10-03T01:40:32.212Z,99.90
2023-10-03T01:43:37.834Z,99.90
2023-10-03T01:46:38.901Z,99.90
2023-10-03T01:49:31.394Z,99.90
2023-10-03T01:52:19.128Z,99.90
2023-10-03T01:55:14.459Z,99.90
2023-10-03T01:57:51.649Z,99.90
2023-10-03T02:00:26.680Z,99.90
2023-10-03T02:03:07.023Z,99.90
2023-10-03T02:06:01.160Z,99.90
2023-10-03T02:09:01.864Z,99.90
2023-10-03T02:11:44.522Z,99.90
2023-10-03T02:14:48.562Z,99.90
2023-10-03T02:17:59.608Z,99.90
2023-10-03T02:20:53.870Z,99.90
2023-10-03T02:23:38.251Z,99.90
2023-10-03T02:26:21.721Z,99.90
2023-10-03T02:28:58.571Z,99.90
2023-10-03T02:31:46.650Z,99.90
2023-10-03T02:34:23.266Z,99.90
2023-10-03T02:36:56.963Z,99.90
2023-10-03T02:39:53.347Z,99.90
2023-10-03T02:42:43.436Z,99.90
2023-10-03T02:45:23.868Z,99.90
2023-10-03T02:48:06.313Z,99.90
2023-10-03T02:50:56.490Z,99.90
2023-10-03T02:53:52.991Z,99.90
2023-10-03T02:56:54.455Z,99.90
2023-10-03T03:00:00.524Z,99.90
2023-10-03T03:03:04.126Z,99.90
2023-10-03T03:05:43.477Z,99.90
2023-10-03T03:08:36.241Z,99.90
2023-10-03T03:11:12.809Z,99.90
2023-10-03T03:13:54.870Z,99.90
2023-10-03T03:16:36.685Z,99.90
2023-10-03T03:19:13.155Z,99.90
2023-10-03T03:21:47.604Z,99.90
2023-10-03T03:24:49.583Z,99.90
2023-10-03T03:27:24.708Z,99.90
2023-10-03T03:30:32.802Z,99.90
2023-10-03T03:33:35.045Z,99.90
2023-10-03T03:36:09.411Z,99.90
2023-10-03T03:38:56.496Z,99.90
2023-10-03T03:42:00.715Z,99.90
2023-10-03T03:44:57.174Z,99.90
2023-10-03T03:48:02.121Z,99.90
2023-10-03T03:50:45.274Z,99.90
2023-10-03T03:53:40.604Z,99.90
2023-10-03T03:56:25.644Z,99.90
2023-10-03T03:59:15.887Z,99.90
2023-10-03T04:02:25.816Z,99.90
2023-10-03T04:05:25.052Z,99.90
2023-10-03T04:08:15.853Z,99.90
2023-10-03T04:10:54.477Z,99.90
2023-10-03T04:13:35.261Z,99.90
2023-10-03T04:16:46.266Z,99.90
2023-10-03T04:19:25.468Z,99.90
2023-10-03T04:22:12.629Z,99.90
2023-10-03T04:24:55.809Z,99.90
2023-10-03T04:27:29.991Z,99.90
2023-10-03T04:30:00.370Z,99.90
2023-10-03T04:33:34.014Z,99.90
2023-10-03T04:36:43.132Z,99.90
2023-10-03T04:39:51.378Z,99.90
2023-10-03T04:43:05.520Z,99.90
2023-10-03T04:45:50.479Z,99.90
2023-10-03T04:48:39.877Z,99.90
2023-10-03T04:51:20.627Z,99.90
2023-10-03T04:54:08.563Z,99.90
2023-10-03T04:56:41.919Z,99.90
2023-10-03T04:59:20.912Z,99.90
2023-10-03T05:01:58.081Z,99.90
2023-10-03T05:04:49.368Z,99.90
2023-10-03T05:07:29.366Z,99.90
2023-10-03T05:10:20.672Z,99.90
2023-10-03T05:13:23.553Z,99.90
2023-10-03T05:16:13.262Z,99.90
2023-10-03T05:19:00.569Z,99.90
2023-10-03T05:22:17.867Z,99.90
2023-10-03T05:25:13.662Z,99.90
2023-10-03T05:28:32.134Z,99.90
2023-10-03T05:31:17.379Z,99.90
2023-10-03T05:33:57.785Z,99.90
2023-10-03T05:36:36.326Z,99.90
2023-10-03T05:39:41.402Z,99.90
2023-10-03T05:42:28.624Z,99.90
2023-10-03T05:45:07.170Z,99.90
2023-10-03T05:47:57.889Z,99.90
2023-10-03T05:50:52.243Z,99.90
2023-10-03T05:53:25.432Z,99.90
2023-10-03T05:56:32.398Z,99.90
2023-10-03T05:59:10.272Z,99.90
2023-10-03T06:02:14.667Z,99.90
2023-10-03T06:04:59.637Z,99.90
2023-10-03T06:07:35.361Z,99.90
2023-10-03T06:10:26.010Z,99.90
2023-10-03T06:13:56.203Z,99.90
2023-10-03T06:16:40.688Z,99.90
2023-10-03T06:19:19.678Z,99.90
2023-10-03T06:21:57.818Z,99.90
2023-10-03T06:24:39.971Z,99.90
2023-10-03T06:27:15.980Z,99.90
2023-10-03T06:30:15.889Z,99.90
2023-10-03T06:33:13.581Z,99.90
2023-10-03T06:35:57.868Z,99.90
2023-10-03T06:38:43.257Z,99.90
2023-10-03T06:41:27.959Z,99.90
2023-10-03T06:44:09.496Z,99.90
2023-10-03T06:46:59.735Z,99.90
2023-10-03T06:49:55.447Z,99.90
2023-10-03T06:52:53.984Z,99.90
2023-10-03T06:55:54.603Z,99.90
2023-10-03T06:58:33.661Z,99.90
2023-10-03T07:01:46.864Z,99.90
2023-10-03T07:04:39.688Z,99.90
2023-10-03T07:07:38.771Z,99.90
2023-10-03T07:10:29.973Z,99.90
2023-10-03T07:13:12.802Z,99.90
2023-10-03T07:16:05.469Z,99.90
2023-10-03T07:18:45.323Z,99.90
2023-10-03T07:21:53.299Z,99.90
2023-10-03T07:24:59.345Z,99.90
2023-10-03T07:27:47.075Z,99.90
2023-10-03T07:30:54.942Z,99.90
2023-10-03T07:33:44.715Z,99.90
2023-10-03T07:36:42.238Z,99.90
2023-10-03T07:39:28.587Z,99.90
2023-10-03T07:42:19.576Z,99.90
2023-10-03T07:45:07.690Z,99.90
2023-10-03T07:47:59.801Z,99.90
2023-10-03T07:50:45.777Z,99.90
2023-10-03T07:53:32.364Z,99.90
2023-10-03T07:56:33.328Z,99.90
2023-10-03T07:59:27.230Z,99.90
2023-10-03T08:02:16.624Z,99.90
2023-10-03T08:05:09.691Z,99.90
2023-10-03T08:08:09.876Z,99.90
2023-10-03T08:11:00.354Z,99.90
2023-10-03T08:13:45.248Z,99.90
2023-10-03T08:16:50.446Z,99.90
2023-10-03T08:19:49.516Z,99.90
2023-10-03T08:22:24.340Z,99.90
2023-10-03T08:25:20.402Z,99.90
2023-10-03T08:27:52.889Z,99.90
2023-10-03T08:30:36.919Z,99.90
2023-10-03T08:33:38.013Z,99.90
2023-10-03T08:36:22.244Z,99.90
2023-10-03T08:39:13.948Z,99.90
2023-10-03T08:42:14.602Z,99.90
2023-10-03T08:45:24.114Z,99.90
2023-10-03T08:48:25.031Z,99.90
2023-10-03T08:51:18.729Z,99.90
2023-10-03T08:53:51.458Z,99.90
2023-10-03T08:56:41.709Z,99.90
2023-10-03T08:59:48.299Z,99.90
2023-10-03T09:02:32.482Z,99.90
2023-10-03T09:05:48.807Z,99.90
2023-10-03T09:09:11.829Z,99.90
2023-10-03T09:11:54.480Z,99.90
2023-10-03T09:14:26.969Z,99.90
2023-10-03T09:17:37.935Z,99.90
2023-10-03T09:20:49.029Z,99.90
2023-10-03T09:24:21.229Z,99.90
2023-10-03T09:26:56.665Z,99.90
2023-10-03T09:29:51.156Z,99.90
2023-10-03T09:32:56.175Z,99.90
2023-10-03T09:36:07.168Z,99.90
2023-10-03T09:39:05.033Z,99.90
2023-10-03T09:42:04.844Z,99.90
2023-10-03T09:44:49.977Z,99.90
2023-10-03T09:47:39.367Z,99.90
2023-10-03T09:50:26.890Z,99.90
2023-10-03T09:53:41.392Z,99.90
2023-10-03T09:56:39.212Z,99.90
2023-10-03T09:59:27.563Z,99.90
2023-10-03T10:02:17.849Z,99.90
2023-10-03T10:05:32.346Z,99.90
2023-10-03T10:08:41.547Z,99.90
2023-10-03T10:11:23.256Z,99.90
2023-10-03T10:14:11.584Z,99.90
2023-10-03T10:17:37.041Z,99.90
2023-10-03T10:20:39.362Z,99.90
2023-10-03T10:23:23.723Z,99.90
2023-10-03T10:26:36.472Z,99.90
2023-10-03T10:29:20.961Z,99.90
2023-10-03T10:31:59.739Z,99.90
2023-10-03T10:34:59.121Z,99.90
2023-10-03T10:38:08.394Z,99.90
2023-10-03T10:41:47.945Z,99.90
2023-10-03T10:44:40.543Z,99.90
2023-10-03T10:47:41.297Z,99.80
2023-10-03T10:50:27.676Z,99.90
2023-10-03T10:53:39.759Z,99.80
2023-10-03T10:56:36.861Z,99.80
2023-10-03T10:59:41.794Z,99.40
2023-10-03T11:02:20.066Z,99.50
2023-10-03T11:05:12.049Z,99.40
2023-10-03T11:08:29.893Z,99.40
2023-10-03T11:11:44.009Z,99.50
2023-10-03T11:14:50.911Z,99.90
2023-10-03T11:17:38.741Z,99.90
2023-10-03T11:20:14.107Z,99.90
2023-10-03T11:23:15.472Z,99.50
2023-10-03T11:26:15.224Z,99.60
2023-10-03T11:29:16.518Z,99.50
2023-10-03T11:32:02.972Z,99.40
2023-10-03T11:34:56.582Z,99.60
2023-10-03T11:37:45.530Z,98.90
2023-10-03T11:40:30.663Z,98.90
2023-10-03T11:43:09.928Z,98.80
2023-10-03T11:45:52.356Z,98.60
2023-10-03T11:48:35.184Z,98.20
2023-10-03T11:51:32.375Z,98.00
2023-10-03T11:54:24.121Z,98.40
2023-10-03T11:57:19.016Z,98.10
2023-10-03T12:00:07.466Z,97.80
2023-10-03T12:02:41.619Z,97.80
2023-10-03T12:05:32.317Z,98.30
2023-10-03T12:08:17.143Z,98.20
2023-10-03T12:11:04.021Z,98.40
2023-10-03T12:13:48.698Z,98.50
2023-10-03T12:16:26.317Z,98.30
2023-10-03T12:19:21.972Z,98.10
2023-10-03T12:22:23.713Z,98.20
2023-10-03T12:25:31.075Z,98.30
2023-10-03T12:28:36.299Z,98.60
2023-10-03T12:31:39.017Z,98.50
2023-10-03T12:34:22.395Z,98.50
2023-10-03T12:37:14.116Z,98.50
2023-10-03T12:40:02.683Z,98.80
2023-10-03T12:42:47.408Z,98.80
2023-10-03T12:45:34.254Z,98.80
2023-10-03T12:48:28.100Z,98.80
2023-10-03T12:51:20.466Z,98.80
2023-10-03T12:54:12.527Z,98.90
2023-10-03T12:56:57.260Z,98.90
2023-10-03T12:59:58.874Z,99.10
2023-10-03T13:02:58.319Z,99.00
2023-10-03T13:06:01.387Z,99.10
2023-10-03T13:08:55.926Z,98.90
2023-10-03T13:11:48.745Z,99.10
2023-10-03T13:14:54.314Z,99.00
2023-10-03T13:18:00.558Z,99.10
2023-10-03T13:20:34.649Z,99.20
2023-10-03T13:23:43.653Z,99.30
2023-10-03T13:26:30.358Z,99.30
2023-10-03T13:30:01.875Z,99.20
2023-10-03T13:32:46.197Z,99.00
2023-10-03T13:35:46.549Z,99.00
2023-10-03T13:38:50.644Z,98.90
2023-10-03T13:41:54.250Z,98.90
2023-10-03T13:44:29.951Z,99.30
2023-10-03T13:47:18.333Z,99.70
2023-10-03T13:50:05.876Z,99.90
2023-10-03T13:53:01.441Z,99.90
2023-10-03T13:55:54.200Z,99.90
2023-10-03T13:58:52.932Z,99.90
2023-10-03T14:02:13.690Z,99.90
2023-10-03T14:04:44.838Z,99.90
2023-10-03T14:07:25.464Z,99.90
2023-10-03T14:10:24.322Z,99.90
2023-10-03T14:13:05.015Z,99.90
2023-10-03T14:16:36.003Z,99.90
2023-10-03T14:19:42.828Z,99.90
2023-10-03T14:22:48.454Z,99.90
2023-10-03T14:26:03.423Z,99.90
2023-10-03T14:29:02.066Z,99.90
2023-10-03T14:32:02.655Z,99.90
2023-10-03T14:35:09.386Z,99.90
2023-10-03T14:38:07.396Z,99.90
2023-10-03T14:40:53.109Z,99.90
2023-10-03T14:44:05.614Z,99.90
2023-10-03T14:47:12.306Z,99.90
2023-10-03T14:50:12.601Z,99.90
2023-10-03T14:52:44.452Z,99.90
2023-10-03T14:55:40.652Z,99.90
2023-10-03T14:58:47.585Z,99.90
2023-10-03T15:01:38.266Z,99.90
2023-10-03T15:04:20.490Z,99.90
2023-10-03T15:07:26.069Z,99.90
2023-10-03T15:10:15.315Z,99.90
2023-10-03T15:13:33.280Z,99.90
2023-10-03T15:16:34.628Z,99.90
2023-10-03T15:19:25.744Z,99.90
2023-10-03T15:22:40.620Z,99.90
2023-10-03T15:25:26.738Z,99.90
2023-10-03T15:28:14.078Z,99.90
2023-10-03T15:30:59.655Z,99.90
2023-10-03T15:33:32.605Z,99.90
2023-10-03T15:36:18.487Z,99.90
2023-10-03T15:39:14.519Z,99.90
2023-10-03T15:42:09.370Z,99.90
2023-10-03T15:45:09.366Z,99.90
2023-10-03T15:47:45.999Z,99.90
2023-10-03T15:50:38.304Z,99.90
2023-10-03T15:53:38.705Z,99.90
2023-10-03T15:56:15.412Z,99.90
2023-10-03T15:59:01.441Z,99.90
2023-10-03T16:01:57.180Z,99.90
2023-10-03T16:05:01.829Z,99.90
2023-10-03T16:07:52.017Z,99.90
2023-10-03T16:10:52.150Z,99.90
2023-10-03T16:13:42.817Z,99.90
2023-10-03T16:16:28.753Z,99.90
2023-10-03T16:19:14.726Z,99.90
2023-10-03T16:21:56.395Z,99.90
2023-10-03T16:24:42.632Z,99.90
2023-10-03T16:27:31.019Z,99.90
2023-10-03T16:30:06.646Z,99.90
2023-10-03T16:32:58.790Z,99.90
2023-10-03T16:35:35.142Z,99.90
2023-10-03T16:38:17.297Z,99.90
2023-10-03T16:41:19.962Z,99.90
2023-10-03T16:44:17.396Z,99.90
2023-10-03T16:46:51.730Z,99.90
2023-10-03T16:49:37.188Z,99.90
2023-10-03T16:52:28.091Z,99.90
2023-10-03T16:55:48.235Z,99.90
2023-10-03T16:58:34.409Z,99.90
2023-10-03T17:01:26.543Z,99.90
2023-10-03T17:04:20.198Z,99.90
2023-10-03T17:07:12.625Z,99.90
2023-10-03T17:09:58.229Z,99.90
2023-10-03T17:12:33.888Z,99.90
2023-10-03T17:15:16.864Z,99.90
2023-10-03T17:17:59.244Z,99.90
2023-10-03T17:20:37.153Z,99.90
2023-10-03T17:23:30.230Z,99.90
2023-10-03T17:26:30.748Z,99.90
2023-10-03T17:29:15.564Z,99.90
2023-10-03T17:31:52.554Z,99.90
2023-10-03T17:34:38.481Z,99.90
2023-10-03T17:37:25.897Z,99.90
2023-10-03T17:40:33.737Z,99.90
2023-10-03T17:43:25.019Z,99.90
2023-10-03T17:46:40.968Z,99.90
2023-10-03T17:49:33.256Z,99.90
2023-10-03T17:52:28.363Z,99.90
2023-10-03T17:55:10.840Z,99.90
2023-10-03T17:58:27.274Z,99.90
2023-10-03T18:01:06.060Z,99.90
2023-10-03T18:04:09.988Z,99.90
2023-10-03T18:06:51.305Z,99.90
2023-10-03T18:10:15.828Z,99.90
2023-10-03T18:13:03.532Z,99.90
2023-10-03T18:16:02.414Z,99.90
2023-10-03T18:18:59.180Z,99.90
2023-10-03T18:21:39.738Z,99.90
2023-10-03T18:24:25.329Z,99.90
2023-10-03T18:27:40.983Z,99.90
2023-10-03T18:30:21.569Z,99.90
2023-10-03T18:33:07.468Z,99.90
2023-10-03T18:35:44.428Z,99.90
2023-10-03T18:38:34.905Z,99.90
2023-10-03T18:41:38.571Z,99.90
2023-10-03T18:45:18.792Z,99.90
2023-10-03T18:48:00.656Z,99.90
2023-10-03T18:50:34.388Z,99.90
2023-10-03T18:53:07.165Z,99.90
2023-10-03T18:56:00.307Z,99.90
2023-10-03T18:58:34.923Z,99.90
2023-10-03T19:01:48.617Z,99.90
2023-10-03T19:04:51.553Z,99.90
2023-10-03T19:08:22.748Z,99.90
2023-10-03T19:11:13.491Z,99.90
2023-10-03T19:14:15.384Z,99.90
2023-10-03T19:17:24.472Z,99.90
2023-10-03T19:20:17.681Z,99.90
2023-10-03T19:23:18.878Z,99.90
2023-10-03T19:26:03.599Z,99.90
2023-10-03T19:28:43.793Z,99.90
2023-10-03T19:31:30.672Z,99.90
2023-10-03T19:34:45.464Z,99.90
2023-10-03T19:37:50.448Z,99.90
2023-10-03T19:40:50.199Z,99.90
2023-10-03T19:43:46.781Z,99.90
2023-10-03T19:46:34.718Z,99.90
2023-10-03T19:49:23.817Z,99.90
2023-10-03T19:52:12.202Z,99.90
2023-10-03T19:55:12.265Z,99.90
2023-10-03T19:58:03.043Z,99.90
2023-10-03T20:01:10.115Z,99.90
2023-10-03T20:03:50.899Z,99.90
2023-10-03T20:06:38.526Z,99.90
2023-10-03T20:09:40.032Z,99.90
2023-10-03T20:12:43.658Z,99.90
2023-10-03T20:15:27.201Z,99.90
2023-10-03T20:18:20.689Z,99.90
2023-10-03T20:21:16.983Z,99.90
2023-10-03T20:24:03.462Z,99.90
2023-10-03T20:27:16.323Z,99.90
2023-10-03T20:29:58.233Z,99.90
2023-10-03T20:32:45.720Z,99.90
2023-10-03T20:35:29.829Z,99.90
2023-10-03T20:38:16.366Z,99.90
2023-10-03T20:40:59.389Z,99.90
2023-10-03T20:43:50.701Z,99.90
2023-10-03T20:46:35.345Z,99.90
2023-10-03T20:49:26.792Z,99.90
2023-10-03T20:52:23.234Z,99.90
2023-10-03T20:55:21.415Z,99.90
2023-10-03T20:58:26.673Z,99.90
2023-10-03T21:01:19.221Z,99.90
2023-10-03T21:04:20.232Z,99.90
2023-10-03T21:07:24.331Z,99.90
2023-10-03T21:10:06.463Z,99.90
2023-10-03T21:12:56.449Z,99.90
2023-10-03T21:15:30.314Z,99.90
2023-10-03T21:18:24.045Z,99.90
2023-10-03T21:21:09.945Z,99.90
2023-10-03T21:24:08.579Z,99.90
2023-10-03T21:27:08.951Z,99.90
2023-10-03T21:29:58.633Z,99.90
2023-10-03T21:33:07.432Z,99.90
2023-10-03T21:36:44.308Z,99.90
2023-10-03T21:39:32.403Z,99.90
2023-10-03T21:42:20.102Z,99.90
2023-10-03T21:44:55.709Z,99.90
2023-10-03T21:47:55.418Z,99.90
2023-10-03T21:50:58.460Z,99.90
2023-10-03T21:54:34.911Z,99.90
2023-10-03T21:57:12.098Z,99.90
2023-10-03T21:59:46.030Z,99.90
2023-10-03T22:02:23.661Z,99.90
2023-10-03T22:05:05.968Z,99.90
2023-10-03T22:07:39.233Z,99.90
2023-10-03T22:10:36.681Z,99.90
2023-10-03T22:13:18.510Z,99.90
2023-10-03T22:15:55.841Z,99.90
2023-10-03T22:18:56.391Z,99.90
2023-10-03T22:21:36.750Z,99.90
2023-10-03T22:24:09.225Z,99.90
2023-10-03T22:26:51.918Z,99.90
2023-10-03T22:29:34.840Z,99.90
2023-10-03T22:32:20.637Z,99.90
2023-10-03T22:35:00.824Z,99.90
2023-10-03T22:38:07.287Z,99.90
2023-10-03T22:41:12.839Z,99.90
2023-10-03T22:44:14.432Z,99.90
2023-10-03T22:46:58.186Z,99.90
2023-10-03T22:49:48.279Z,99.90
2023-10-03T22:52:54.526Z,99.90
2023-10-03T22:55:28.755Z,99.90
2023-10-03T22:58:16.113Z,99.90
2023-10-03T23:01:21.680Z,99.90
2023-10-03T23:04:05.862Z,99.90
2023-10-03T23:06:50.186Z,99.90
2023-10-03T23:10:05.140Z,99.90
2023-10-03T23:13:13.945Z,99.90
2023-10-03T23:15:50.046Z,99.90
2023-10-03T23:18:58.107Z,99.90
2023-10-03T23:21:32.952Z,99.90
2023-10-03T23:24:25.414Z,99.90
2023-10-03T23:27:20.884Z,99.90
2023-10-03T23:30:26.267Z,99.90
2023-10-03T23:33:01.072Z,99.90
2023-10-03T23:36:03.580Z,99.90
2023-10-03T23:39:04.293Z,99.90
2023-10-03T23:42:20.994Z,99.90
2023-10-03T23:45:15.148Z,99.90
2023-10-03T23:48:00.800Z,99.90
2023-10-03T23:50:43.843Z,99.90
2023-10-03T23:53:39.668Z,99.90
2023-10-03T23:56:36.475Z,99.90
2023-10-03T23:59:41.340Z,99.90
